sensor_id;sensor_type;location;lat;lon;timestamp;temperature;humidity
41664;DHT22;27353;50.906;7.248;2024-01-06T00:01:31;6.60;99.90
41664;DHT22;27353;50.906;7.248;2024-01-06T00:03:56;6.60;99.90
41664;DHT22;27353;50.906;7.248;2024-01-06T00:06:22;6.70;99.90
41664;DHT22;27353;50.906;7.248;2024-01-06T00:08:47;6.70;99.90
41664;DHT22;27353;50.906;7.248;2024-01-06T00:11:19;6.70;99.90
41664;DHT22;27353;50.906;7.248;2024-01-06T00:13:46;6.60;99.90
41664;DHT22;27353;50.906;7.248;2024-01-06T00:16:11;6.60;99.90
41664;DHT22;27353;50.906;7.248;2024-01-06T00:18:37;6.60;99.90
41664;DHT22;27353;50.906;7.248;2024-01-06T00:21:02;6.60;99.90
41664;DHT22;27353;50.906;7.248;2024-01-06T00:23:28;6.60;99.90
41664;DHT22;27353;50.906;7.248;2024-01-06T00:25:54;6.70;99.90
41664;DHT22;27353;50.906;7.248;2024-01-06T00:28:19;6.70;99.90
41664;DHT22;27353;50.906;7.248;2024-01-06T00:30:45;6.60;99.90
41664;DHT22;27353;50.906;7.248;2024-01-06T00:33:11;6.60;99.90
41664;DHT22;27353;50.906;7.248;2024-01-06T00:35:37;6.60;99.90
41664;DHT22;27353;50.906;7.248;2024-01-06T00:38:03;6.60;99.90
41664;DHT22;27353;50.906;7.248;2024-01-06T00:40:28;6.70;99.90
41664;DHT22;27353;50.906;7.248;2024-01-06T00:42:54;6.70;99.90
41664;DHT22;27353;50.906;7.248;2024-01-06T00:45:19;6.70;99.90
41664;DHT22;27353;50.906;7.248;2024-01-06T00:47:45;6.70;99.90
41664;DHT22;27353;50.906;7.248;2024-01-06T00:50:11;6.70;99.90
41664;DHT22;27353;50.906;7.248;2024-01-06T00:52:37;6.60;99.90
41664;DHT22;27353;50.906;7.248;2024-01-06T00:55:03;6.70;99.90
41664;DHT22;27353;50.906;7.248;2024-01-06T00:57:28;6.60;99.90
41664;DHT22;27353;50.906;7.248;2024-01-06T00:59:54;6.70;99.90
41664;DHT22;27353;50.906;7.248;2024-01-06T01:02:20;6.70;99.90
41664;DHT22;27353;50.906;7.248;2024-01-06T01:04:45;6.60;99.90
41664;DHT22;27353;50.906;7.248;2024-01-06T01:07:12;6.60;99.90
41664;DHT22;27353;50.906;7.248;2024-01-06T01:09:37;6.70;99.90
41664;DHT22;27353;50.906;7.248;2024-01-06T01:12:03;6.70;99.90
41664;DHT22;27353;50.906;7.248;2024-01-06T01:14:29;6.70;99.90
41664;DHT22;27353;50.906;7.248;2024-01-06T01:16:54;6.70;99.90
41664;DHT22;27353;50.906;7.248;2024-01-06T01:19:20;6.60;99.90
41664;DHT22;27353;50.906;7.248;2024-01-06T01:21:46;6.60;99.90
41664;DHT22;27353;50.906;7.248;2024-01-06T01:24:11;6.60;99.90
41664;DHT22;27353;50.906;7.248;2024-01-06T01:26:37;6.50;99.90
41664;DHT22;27353;50.906;7.248;2024-01-06T01:29:02;6.50;99.90
41664;DHT22;27353;50.906;7.248;2024-01-06T01:31:28;6.50;99.90
41664;DHT22;27353;50.906;7.248;2024-01-06T01:33:54;6.50;99.90
41664;DHT22;27353;50.906;7.248;2024-01-06T01:36:19;6.50;99.90
41664;DHT22;27353;50.906;7.248;2024-01-06T01:38:45;6.50;99.90
41664;DHT22;27353;50.906;7.248;2024-01-06T01:41:10;6.50;99.90
41664;DHT22;27353;50.906;7.248;2024-01-06T01:43:36;6.50;99.90
41664;DHT22;27353;50.906;7.248;2024-01-06T01:46:02;6.50;99.90
41664;DHT22;27353;50.906;7.248;2024-01-06T01:48:27;6.40;99.90
41664;DHT22;27353;50.906;7.248;2024-01-06T01:50:53;6.40;99.90
41664;DHT22;27353;50.906;7.248;2024-01-06T01:53:19;6.50;99.90
41664;DHT22;27353;50.906;7.248;2024-01-06T01:55:47;6.50;99.90
41664;DHT22;27353;50.906;7.248;2024-01-06T01:58:14;6.50;99.90
41664;DHT22;27353;50.906;7.248;2024-01-06T02:00:39;6.50;99.90
41664;DHT22;27353;50.906;7.248;2024-01-06T02:03:05;6.50;99.90
41664;DHT22;27353;50.906;7.248;2024-01-06T02:05:32;6.50;99.90
41664;DHT22;27353;50.906;7.248;2024-01-06T02:07:58;6.40;99.90
41664;DHT22;27353;50.906;7.248;2024-01-06T02:10:24;6.40;99.90
41664;DHT22;27353;50.906;7.248;2024-01-06T02:12:49;6.50;99.90
41664;DHT22;27353;50.906;7.248;2024-01-06T02:15:17;6.50;99.90
41664;DHT22;27353;50.906;7.248;2024-01-06T02:17:43;6.40;99.90
41664;DHT22;27353;50.906;7.248;2024-01-06T02:20:09;6.40;99.90
41664;DHT22;27353;50.906;7.248;2024-01-06T02:22:36;6.40;99.90
41664;DHT22;27353;50.906;7.248;2024-01-06T02:25:05;6.40;99.90
41664;DHT22;27353;50.906;7.248;2024-01-06T02:27:40;6.50;99.90
41664;DHT22;27353;50.906;7.248;2024-01-06T02:30:06;6.50;99.90
41664;DHT22;27353;50.906;7.248;2024-01-06T02:32:32;6.50;99.90
41664;DHT22;27353;50.906;7.248;2024-01-06T02:34:58;6.50;99.90
41664;DHT22;27353;50.906;7.248;2024-01-06T02:37:23;6.40;99.90
41664;DHT22;27353;50.906;7.248;2024-01-06T02:39:49;6.50;99.90
41664;DHT22;27353;50.906;7.248;2024-01-06T02:42:15;6.50;99.90
41664;DHT22;27353;50.906;7.248;2024-01-06T02:44:40;6.50;99.90
41664;DHT22;27353;50.906;7.248;2024-01-06T02:47:06;6.50;99.90
41664;DHT22;27353;50.906;7.248;2024-01-06T02:49:32;6.40;99.90
41664;DHT22;27353;50.906;7.248;2024-01-06T02:51:57;6.50;99.90
41664;DHT22;27353;50.906;7.248;2024-01-06T02:54:23;6.50;99.90
41664;DHT22;27353;50.906;7.248;2024-01-06T02:56:48;6.50;99.90
41664;DHT22;27353;50.906;7.248;2024-01-06T02:59:14;6.50;99.90
41664;DHT22;27353;50.906;7.248;2024-01-06T03:01:40;6.50;99.90
41664;DHT22;27353;50.906;7.248;2024-01-06T03:04:05;6.40;99.90
41664;DHT22;27353;50.906;7.248;2024-01-06T03:06:31;6.40;99.90
41664;DHT22;27353;50.906;7.248;2024-01-06T03:08:56;6.50;99.90
41664;DHT22;27353;50.906;7.248;2024-01-06T03:11:22;6.50;99.90
41664;DHT22;27353;50.906;7.248;2024-01-06T03:13:48;6.50;99.90
41664;DHT22;27353;50.906;7.248;2024-01-06T03:16:13;6.50;99.90
41664;DHT22;27353;50.906;7.248;2024-01-06T03:18:39;6.50;99.90
41664;DHT22;27353;50.906;7.248;2024-01-06T03:21:05;6.50;99.90
41664;DHT22;27353;50.906;7.248;2024-01-06T03:23:30;6.50;99.90
41664;DHT22;27353;50.906;7.248;2024-01-06T03:25:56;6.50;99.90
41664;DHT22;27353;50.906;7.248;2024-01-06T03:28:21;6.50;99.90
41664;DHT22;27353;50.906;7.248;2024-01-06T03:30:47;6.50;99.90
41664;DHT22;27353;50.906;7.248;2024-01-06T03:33:13;6.40;99.90
41664;DHT22;27353;50.906;7.248;2024-01-06T03:35:38;6.40;99.90
41664;DHT22;27353;50.906;7.248;2024-01-06T03:38:04;6.50;99.90
41664;DHT22;27353;50.906;7.248;2024-01-06T03:40:29;6.50;99.90
41664;DHT22;27353;50.906;7.248;2024-01-06T03:42:55;6.50;99.90
41664;DHT22;27353;50.906;7.248;2024-01-06T03:45:21;6.50;99.90
41664;DHT22;27353;50.906;7.248;2024-01-06T03:47:46;6.50;99.90
41664;DHT22;27353;50.906;7.248;2024-01-06T03:50:12;6.50;99.90
41664;DHT22;27353;50.906;7.248;2024-01-06T03:52:38;6.50;99.90
41664;DHT22;27353;50.906;7.248;2024-01-06T03:55:05;6.50;99.90
41664;DHT22;27353;50.906;7.248;2024-01-06T03:57:30;6.50;99.90
41664;DHT22;27353;50.906;7.248;2024-01-06T03:59:57;6.50;99.90
41664;DHT22;27353;50.906;7.248;2024-01-06T04:02:23;6.50;99.90
41664;DHT22;27353;50.906;7.248;2024-01-06T04:04:49;6.60;99.90
41664;DHT22;27353;50.906;7.248;2024-01-06T04:07:15;6.60;99.90
41664;DHT22;27353;50.906;7.248;2024-01-06T04:09:42;6.60;99.90
41664;DHT22;27353;50.906;7.248;2024-01-06T04:12:09;6.60;99.90
41664;DHT22;27353;50.906;7.248;2024-01-06T04:14:34;6.60;99.90
41664;DHT22;27353;50.906;7.248;2024-01-06T04:17:00;6.60;99.90
41664;DHT22;27353;50.906;7.248;2024-01-06T04:19:25;6.60;99.90
41664;DHT22;27353;50.906;7.248;2024-01-06T04:21:51;6.60;99.90
41664;DHT22;27353;50.906;7.248;2024-01-06T04:24:17;6.70;99.90
41664;DHT22;27353;50.906;7.248;2024-01-06T04:26:42;6.60;99.90
41664;DHT22;27353;50.906;7.248;2024-01-06T04:29:10;6.60;99.90
41664;DHT22;27353;50.906;7.248;2024-01-06T04:31:36;6.60;99.90
41664;DHT22;27353;50.906;7.248;2024-01-06T04:34:01;6.60;99.90
41664;DHT22;27353;50.906;7.248;2024-01-06T04:36:28;6.60;99.90
41664;DHT22;27353;50.906;7.248;2024-01-06T04:38:54;6.70;99.90
41664;DHT22;27353;50.906;7.248;2024-01-06T04:41:20;6.60;99.90
41664;DHT22;27353;50.906;7.248;2024-01-06T04:43:46;6.60;99.90
41664;DHT22;27353;50.906;7.248;2024-01-06T04:46:11;6.60;99.90
41664;DHT22;27353;50.906;7.248;2024-01-06T04:48:40;6.60;99.90
41664;DHT22;27353;50.906;7.248;2024-01-06T04:51:06;6.60;99.90
41664;DHT22;27353;50.906;7.248;2024-01-06T04:53:35;6.70;99.90
41664;DHT22;27353;50.906;7.248;2024-01-06T04:56:01;6.60;99.90
41664;DHT22;27353;50.906;7.248;2024-01-06T04:58:26;6.60;99.90
41664;DHT22;27353;50.906;7.248;2024-01-06T05:00:52;6.60;99.90
41664;DHT22;27353;50.906;7.248;2024-01-06T05:03:18;6.60;99.90
41664;DHT22;27353;50.906;7.248;2024-01-06T05:05:44;6.60;99.90
41664;DHT22;27353;50.906;7.248;2024-01-06T05:08:09;6.60;99.90
41664;DHT22;27353;50.906;7.248;2024-01-06T05:10:35;6.70;99.90
41664;DHT22;27353;50.906;7.248;2024-01-06T05:13:00;6.60;99.90
41664;DHT22;27353;50.906;7.248;2024-01-06T05:15:26;6.70;99.90
41664;DHT22;27353;50.906;7.248;2024-01-06T05:17:52;6.70;99.90
41664;DHT22;27353;50.906;7.248;2024-01-06T05:20:17;6.70;99.90
41664;DHT22;27353;50.906;7.248;2024-01-06T05:22:43;6.60;99.90
41664;DHT22;27353;50.906;7.248;2024-01-06T05:25:08;6.60;99.90
41664;DHT22;27353;50.906;7.248;2024-01-06T05:27:34;6.60;99.90
41664;DHT22;27353;50.906;7.248;2024-01-06T05:30:00;6.60;99.90
41664;DHT22;27353;50.906;7.248;2024-01-06T05:32:26;6.60;99.90
41664;DHT22;27353;50.906;7.248;2024-01-06T05:34:52;6.60;99.90
41664;DHT22;27353;50.906;7.248;2024-01-06T05:37:18;6.60;99.90
41664;DHT22;27353;50.906;7.248;2024-01-06T05:39:43;6.60;99.90
41664;DHT22;27353;50.906;7.248;2024-01-06T05:42:10;6.60;99.90
41664;DHT22;27353;50.906;7.248;2024-01-06T05:44:40;6.60;99.90
41664;DHT22;27353;50.906;7.248;2024-01-06T05:47:06;6.60;99.90
41664;DHT22;27353;50.906;7.248;2024-01-06T05:49:33;6.60;99.90
41664;DHT22;27353;50.906;7.248;2024-01-06T05:51:59;6.60;99.90
41664;DHT22;27353;50.906;7.248;2024-01-06T05:54:24;6.60;99.90
41664;DHT22;27353;50.906;7.248;2024-01-06T05:56:50;6.60;99.90
41664;DHT22;27353;50.906;7.248;2024-01-06T05:59:16;6.70;99.90
41664;DHT22;27353;50.906;7.248;2024-01-06T06:01:41;6.70;99.90
41664;DHT22;27353;50.906;7.248;2024-01-06T06:04:09;6.70;99.90
41664;DHT22;27353;50.906;7.248;2024-01-06T06:06:34;6.80;99.90
41664;DHT22;27353;50.906;7.248;2024-01-06T06:09:00;6.70;99.90
41664;DHT22;27353;50.906;7.248;2024-01-06T06:11:26;6.70;99.90
41664;DHT22;27353;50.906;7.248;2024-01-06T06:13:51;6.70;99.90
41664;DHT22;27353;50.906;7.248;2024-01-06T06:16:17;6.70;99.90
41664;DHT22;27353;50.906;7.248;2024-01-06T06:18:42;6.70;99.90
41664;DHT22;27353;50.906;7.248;2024-01-06T06:21:08;6.70;99.90
41664;DHT22;27353;50.906;7.248;2024-01-06T06:23:34;6.70;99.90
41664;DHT22;27353;50.906;7.248;2024-01-06T06:26:07;6.60;99.90
41664;DHT22;27353;50.906;7.248;2024-01-06T06:28:33;6.50;99.90
41664;DHT22;27353;50.906;7.248;2024-01-06T06:31:00;6.40;99.90
41664;DHT22;27353;50.906;7.248;2024-01-06T06:33:25;6.30;99.90
41664;DHT22;27353;50.906;7.248;2024-01-06T06:35:51;6.20;99.90
41664;DHT22;27353;50.906;7.248;2024-01-06T06:38:16;6.20;99.90
41664;DHT22;27353;50.906;7.248;2024-01-06T06:40:42;6.10;99.90
41664;DHT22;27353;50.906;7.248;2024-01-06T06:43:08;6.10;99.90
41664;DHT22;27353;50.906;7.248;2024-01-06T06:45:34;6.10;99.90
41664;DHT22;27353;50.906;7.248;2024-01-06T06:47:59;6.10;99.90
41664;DHT22;27353;50.906;7.248;2024-01-06T06:50:25;6.10;99.90
41664;DHT22;27353;50.906;7.248;2024-01-06T06:52:51;6.10;99.90
41664;DHT22;27353;50.906;7.248;2024-01-06T06:55:18;6.10;99.90
41664;DHT22;27353;50.906;7.248;2024-01-06T06:57:43;6.00;99.90
41664;DHT22;27353;50.906;7.248;2024-01-06T07:00:09;6.00;99.90
41664;DHT22;27353;50.906;7.248;2024-01-06T07:02:35;6.00;99.90
41664;DHT22;27353;50.906;7.248;2024-01-06T07:05:01;6.00;99.90
41664;DHT22;27353;50.906;7.248;2024-01-06T07:07:26;5.90;99.90
41664;DHT22;27353;50.906;7.248;2024-01-06T07:09:52;5.90;99.90
41664;DHT22;27353;50.906;7.248;2024-01-06T07:12:18;5.80;99.90
41664;DHT22;27353;50.906;7.248;2024-01-06T07:14:43;5.90;99.90
41664;DHT22;27353;50.906;7.248;2024-01-06T07:17:09;5.80;99.90
41664;DHT22;27353;50.906;7.248;2024-01-06T07:19:35;5.80;99.90
41664;DHT22;27353;50.906;7.248;2024-01-06T07:22:00;5.70;99.90
41664;DHT22;27353;50.906;7.248;2024-01-06T07:24:26;5.70;99.90
41664;DHT22;27353;50.906;7.248;2024-01-06T07:26:52;5.60;99.90
41664;DHT22;27353;50.906;7.248;2024-01-06T07:29:18;5.60;99.90
41664;DHT22;27353;50.906;7.248;2024-01-06T07:31:44;5.60;99.90
41664;DHT22;27353;50.906;7.248;2024-01-06T07:34:09;5.60;99.90
41664;DHT22;27353;50.906;7.248;2024-01-06T07:36:35;5.60;99.90
41664;DHT22;27353;50.906;7.248;2024-01-06T07:39:01;5.60;99.90
41664;DHT22;27353;50.906;7.248;2024-01-06T07:41:26;5.50;99.90
41664;DHT22;27353;50.906;7.248;2024-01-06T07:43:52;5.50;99.90
41664;DHT22;27353;50.906;7.248;2024-01-06T07:46:17;5.50;99.90
41664;DHT22;27353;50.906;7.248;2024-01-06T07:48:43;5.50;99.90
41664;DHT22;27353;50.906;7.248;2024-01-06T07:51:09;5.50;99.90
41664;DHT22;27353;50.906;7.248;2024-01-06T07:53:34;5.50;99.90
41664;DHT22;27353;50.906;7.248;2024-01-06T07:56:00;5.50;99.90
41664;DHT22;27353;50.906;7.248;2024-01-06T07:58:25;5.40;99.90
41664;DHT22;27353;50.906;7.248;2024-01-06T08:00:51;5.40;99.90
41664;DHT22;27353;50.906;7.248;2024-01-06T08:03:16;5.50;99.90
41664;DHT22;27353;50.906;7.248;2024-01-06T08:05:42;5.40;99.90
41664;DHT22;27353;50.906;7.248;2024-01-06T08:08:07;5.40;99.90
41664;DHT22;27353;50.906;7.248;2024-01-06T08:10:33;5.40;99.90
41664;DHT22;27353;50.906;7.248;2024-01-06T08:12:59;5.40;99.90
41664;DHT22;27353;50.906;7.248;2024-01-06T08:15:24;5.30;99.90
41664;DHT22;27353;50.906;7.248;2024-01-06T08:17:50;5.40;99.90
41664;DHT22;27353;50.906;7.248;2024-01-06T08:20:15;5.40;99.90
41664;DHT22;27353;50.906;7.248;2024-01-06T08:22:41;5.40;99.90
41664;DHT22;27353;50.906;7.248;2024-01-06T08:25:07;5.40;99.90
41664;DHT22;27353;50.906;7.248;2024-01-06T08:27:33;5.40;99.90
41664;DHT22;27353;50.906;7.248;2024-01-06T08:29:59;5.40;99.90
41664;DHT22;27353;50.906;7.248;2024-01-06T08:32:25;5.40;99.90
41664;DHT22;27353;50.906;7.248;2024-01-06T08:34:50;5.50;99.90
41664;DHT22;27353;50.906;7.248;2024-01-06T08:37:16;5.50;99.90
41664;DHT22;27353;50.906;7.248;2024-01-06T08:39:42;5.50;99.90
41664;DHT22;27353;50.906;7.248;2024-01-06T08:42:07;5.50;99.90
41664;DHT22;27353;50.906;7.248;2024-01-06T08:44:33;5.50;99.90
41664;DHT22;27353;50.906;7.248;2024-01-06T08:46:59;5.50;99.90
41664;DHT22;27353;50.906;7.248;2024-01-06T08:49:24;5.50;99.90
41664;DHT22;27353;50.906;7.248;2024-01-06T08:51:50;5.60;99.90
41664;DHT22;27353;50.906;7.248;2024-01-06T08:54:16;5.60;99.90
41664;DHT22;27353;50.906;7.248;2024-01-06T08:56:41;5.50;99.90
41664;DHT22;27353;50.906;7.248;2024-01-06T08:59:07;5.60;99.90
41664;DHT22;27353;50.906;7.248;2024-01-06T09:01:32;5.60;99.90
41664;DHT22;27353;50.906;7.248;2024-01-06T09:04:01;5.60;99.90
41664;DHT22;27353;50.906;7.248;2024-01-06T09:06:27;5.60;99.90
41664;DHT22;27353;50.906;7.248;2024-01-06T09:08:52;5.70;99.90
41664;DHT22;27353;50.906;7.248;2024-01-06T09:11:18;5.70;99.90
41664;DHT22;27353;50.906;7.248;2024-01-06T09:13:44;5.70;99.90
41664;DHT22;27353;50.906;7.248;2024-01-06T09:16:09;5.70;99.90
41664;DHT22;27353;50.906;7.248;2024-01-06T09:18:36;5.70;99.90
41664;DHT22;27353;50.906;7.248;2024-01-06T09:21:01;5.70;99.90
41664;DHT22;27353;50.906;7.248;2024-01-06T09:23:28;5.80;99.90
41664;DHT22;27353;50.906;7.248;2024-01-06T09:25:54;5.80;99.90
41664;DHT22;27353;50.906;7.248;2024-01-06T09:28:20;5.80;99.90
41664;DHT22;27353;50.906;7.248;2024-01-06T09:30:47;5.90;99.90
41664;DHT22;27353;50.906;7.248;2024-01-06T09:33:12;5.90;99.90
41664;DHT22;27353;50.906;7.248;2024-01-06T09:35:41;5.90;99.90
41664;DHT22;27353;50.906;7.248;2024-01-06T09:38:07;5.90;99.90
41664;DHT22;27353;50.906;7.248;2024-01-06T09:40:34;5.90;99.90
41664;DHT22;27353;50.906;7.248;2024-01-06T09:43:00;5.80;99.90
41664;DHT22;27353;50.906;7.248;2024-01-06T09:45:28;5.80;99.90
41664;DHT22;27353;50.906;7.248;2024-01-06T09:47:54;5.80;99.90
41664;DHT22;27353;50.906;7.248;2024-01-06T09:50:21;5.90;99.90
41664;DHT22;27353;50.906;7.248;2024-01-06T09:52:48;5.90;99.90
41664;DHT22;27353;50.906;7.248;2024-01-06T09:55:25;5.80;99.90
41664;DHT22;27353;50.906;7.248;2024-01-06T09:57:54;5.80;99.90
41664;DHT22;27353;50.906;7.248;2024-01-06T10:00:20;5.80;99.90
41664;DHT22;27353;50.906;7.248;2024-01-06T10:02:50;5.80;99.90
41664;DHT22;27353;50.906;7.248;2024-01-06T10:05:17;5.80;99.90
41664;DHT22;27353;50.906;7.248;2024-01-06T10:07:43;5.70;99.90
41664;DHT22;27353;50.906;7.248;2024-01-06T10:10:09;5.70;99.90
41664;DHT22;27353;50.906;7.248;2024-01-06T10:12:37;5.70;99.90
41664;DHT22;27353;50.906;7.248;2024-01-06T10:15:05;5.70;99.90
41664;DHT22;27353;50.906;7.248;2024-01-06T10:17:32;5.80;99.90
41664;DHT22;27353;50.906;7.248;2024-01-06T10:19:58;5.80;99.90
41664;DHT22;27353;50.906;7.248;2024-01-06T10:22:24;5.70;99.90
41664;DHT22;27353;50.906;7.248;2024-01-06T10:24:50;5.70;99.90
41664;DHT22;27353;50.906;7.248;2024-01-06T10:27:16;5.80;99.90
41664;DHT22;27353;50.906;7.248;2024-01-06T10:29:41;5.80;99.90
41664;DHT22;27353;50.906;7.248;2024-01-06T10:32:08;5.80;99.90
41664;DHT22;27353;50.906;7.248;2024-01-06T10:34:34;5.80;99.90
41664;DHT22;27353;50.906;7.248;2024-01-06T10:37:02;5.90;99.90
41664;DHT22;27353;50.906;7.248;2024-01-06T10:39:28;5.80;99.90
41664;DHT22;27353;50.906;7.248;2024-01-06T10:41:55;5.80;99.90
41664;DHT22;27353;50.906;7.248;2024-01-06T10:44:21;5.80;99.90
41664;DHT22;27353;50.906;7.248;2024-01-06T10:46:48;5.70;99.90
41664;DHT22;27353;50.906;7.248;2024-01-06T10:49:15;5.70;99.90
41664;DHT22;27353;50.906;7.248;2024-01-06T10:51:42;5.70;99.90
41664;DHT22;27353;50.906;7.248;2024-01-06T10:54:10;5.70;99.90
41664;DHT22;27353;50.906;7.248;2024-01-06T10:56:38;5.60;99.90
41664;DHT22;27353;50.906;7.248;2024-01-06T10:59:07;5.60;99.90
41664;DHT22;27353;50.906;7.248;2024-01-06T11:01:34;5.60;99.90
41664;DHT22;27353;50.906;7.248;2024-01-06T11:04:02;5.60;99.90
41664;DHT22;27353;50.906;7.248;2024-01-06T11:06:30;5.60;99.90
41664;DHT22;27353;50.906;7.248;2024-01-06T11:11:22;5.70;99.90
41664;DHT22;27353;50.906;7.248;2024-01-06T11:13:49;5.60;99.90
41664;DHT22;27353;50.906;7.248;2024-01-06T11:16:34;5.60;99.90
41664;DHT22;27353;50.906;7.248;2024-01-06T11:19:00;5.60;99.90
41664;DHT22;27353;50.906;7.248;2024-01-06T11:21:26;5.60;99.90
41664;DHT22;27353;50.906;7.248;2024-01-06T11:24:14;5.60;99.90
41664;DHT22;27353;50.906;7.248;2024-01-06T11:26:45;5.60;99.90
41664;DHT22;27353;50.906;7.248;2024-01-06T11:29:10;5.60;99.90
41664;DHT22;27353;50.906;7.248;2024-01-06T11:31:37;5.70;99.90
41664;DHT22;27353;50.906;7.248;2024-01-06T11:34:18;5.70;99.90
41664;DHT22;27353;50.906;7.248;2024-01-06T11:36:48;5.70;99.90
41664;DHT22;27353;50.906;7.248;2024-01-06T11:39:35;5.60;99.90
41664;DHT22;27353;50.906;7.248;2024-01-06T11:42:03;5.60;99.90
41664;DHT22;27353;50.906;7.248;2024-01-06T11:44:29;5.70;99.90
41664;DHT22;27353;50.906;7.248;2024-01-06T11:46:59;5.60;99.90
41664;DHT22;27353;50.906;7.248;2024-01-06T11:49:27;5.60;99.90
41664;DHT22;27353;50.906;7.248;2024-01-06T11:51:56;5.70;99.90
41664;DHT22;27353;50.906;7.248;2024-01-06T11:54:22;5.60;99.90
41664;DHT22;27353;50.906;7.248;2024-01-06T11:56:48;5.50;99.90
41664;DHT22;27353;50.906;7.248;2024-01-06T11:59:14;5.50;99.90
41664;DHT22;27353;50.906;7.248;2024-01-06T12:01:40;5.50;99.90
41664;DHT22;27353;50.906;7.248;2024-01-06T12:04:06;5.40;99.90
41664;DHT22;27353;50.906;7.248;2024-01-06T12:06:32;5.40;99.90
41664;DHT22;27353;50.906;7.248;2024-01-06T12:09:08;5.40;99.90
41664;DHT22;27353;50.906;7.248;2024-01-06T12:11:34;5.40;99.90
41664;DHT22;27353;50.906;7.248;2024-01-06T12:14:00;5.40;99.90
41664;DHT22;27353;50.906;7.248;2024-01-06T12:16:25;5.40;99.90
41664;DHT22;27353;50.906;7.248;2024-01-06T12:18:55;5.40;99.90
41664;DHT22;27353;50.906;7.248;2024-01-06T12:21:23;5.40;99.90
41664;DHT22;27353;50.906;7.248;2024-01-06T12:23:49;5.40;99.90
41664;DHT22;27353;50.906;7.248;2024-01-06T12:26:16;5.40;99.90
41664;DHT22;27353;50.906;7.248;2024-01-06T12:28:44;5.40;99.90
41664;DHT22;27353;50.906;7.248;2024-01-06T12:31:11;5.30;99.90
41664;DHT22;27353;50.906;7.248;2024-01-06T12:33:38;5.30;99.90
41664;DHT22;27353;50.906;7.248;2024-01-06T12:36:05;5.30;99.90
41664;DHT22;27353;50.906;7.248;2024-01-06T12:38:31;5.20;99.90
41664;DHT22;27353;50.906;7.248;2024-01-06T12:40:57;5.20;99.90
41664;DHT22;27353;50.906;7.248;2024-01-06T12:43:22;5.20;99.90
41664;DHT22;27353;50.906;7.248;2024-01-06T12:45:48;5.20;99.90
41664;DHT22;27353;50.906;7.248;2024-01-06T12:48:14;5.20;99.90
41664;DHT22;27353;50.906;7.248;2024-01-06T12:50:40;5.20;99.90
41664;DHT22;27353;50.906;7.248;2024-01-06T12:53:05;5.20;99.90
41664;DHT22;27353;50.906;7.248;2024-01-06T12:55:31;5.20;99.90
41664;DHT22;27353;50.906;7.248;2024-01-06T12:57:56;5.20;99.90
41664;DHT22;27353;50.906;7.248;2024-01-06T13:00:22;5.20;99.90
41664;DHT22;27353;50.906;7.248;2024-01-06T13:02:48;5.20;99.90
41664;DHT22;27353;50.906;7.248;2024-01-06T13:05:13;5.20;99.90
41664;DHT22;27353;50.906;7.248;2024-01-06T13:07:39;5.20;99.90
41664;DHT22;27353;50.906;7.248;2024-01-06T13:10:05;5.20;99.90
41664;DHT22;27353;50.906;7.248;2024-01-06T13:12:31;5.20;99.90
41664;DHT22;27353;50.906;7.248;2024-01-06T13:14:57;5.20;99.90
41664;DHT22;27353;50.906;7.248;2024-01-06T13:17:22;5.10;99.90
41664;DHT22;27353;50.906;7.248;2024-01-06T13:19:48;5.00;99.90
41664;DHT22;27353;50.906;7.248;2024-01-06T13:22:14;5.00;99.90
41664;DHT22;27353;50.906;7.248;2024-01-06T13:24:41;5.00;99.90
41664;DHT22;27353;50.906;7.248;2024-01-06T13:27:07;5.00;99.90
41664;DHT22;27353;50.906;7.248;2024-01-06T13:29:32;4.90;99.90
41664;DHT22;27353;50.906;7.248;2024-01-06T13:31:58;4.90;99.90
41664;DHT22;27353;50.906;7.248;2024-01-06T13:34:25;4.90;99.90
41664;DHT22;27353;50.906;7.248;2024-01-06T13:36:50;4.90;99.90
41664;DHT22;27353;50.906;7.248;2024-01-06T13:39:16;4.90;99.90
41664;DHT22;27353;50.906;7.248;2024-01-06T13:41:48;4.90;99.90
41664;DHT22;27353;50.906;7.248;2024-01-06T13:44:14;5.00;99.90
41664;DHT22;27353;50.906;7.248;2024-01-06T13:46:40;4.80;99.90
41664;DHT22;27353;50.906;7.248;2024-01-06T13:49:13;4.90;99.90
41664;DHT22;27353;50.906;7.248;2024-01-06T13:51:42;4.90;99.90
41664;DHT22;27353;50.906;7.248;2024-01-06T13:54:08;4.90;99.90
41664;DHT22;27353;50.906;7.248;2024-01-06T13:56:35;4.90;99.90
41664;DHT22;27353;50.906;7.248;2024-01-06T13:59:00;4.80;99.90
41664;DHT22;27353;50.906;7.248;2024-01-06T14:01:26;4.80;99.90
41664;DHT22;27353;50.906;7.248;2024-01-06T14:03:52;4.80;99.90
41664;DHT22;27353;50.906;7.248;2024-01-06T14:06:24;4.80;99.90
41664;DHT22;27353;50.906;7.248;2024-01-06T14:08:51;4.80;99.90
41664;DHT22;27353;50.906;7.248;2024-01-06T14:11:18;4.80;99.90
41664;DHT22;27353;50.906;7.248;2024-01-06T14:13:44;4.80;99.90
41664;DHT22;27353;50.906;7.248;2024-01-06T14:16:14;4.80;99.90
41664;DHT22;27353;50.906;7.248;2024-01-06T14:18:39;4.80;99.90
41664;DHT22;27353;50.906;7.248;2024-01-06T14:21:05;4.80;99.90
41664;DHT22;27353;50.906;7.248;2024-01-06T14:23:30;4.80;99.90
41664;DHT22;27353;50.906;7.248;2024-01-06T14:25:58;4.80;99.90
41664;DHT22;27353;50.906;7.248;2024-01-06T14:28:24;4.70;99.90
41664;DHT22;27353;50.906;7.248;2024-01-06T14:30:50;4.70;99.90
41664;DHT22;27353;50.906;7.248;2024-01-06T14:33:16;4.70;99.90
41664;DHT22;27353;50.906;7.248;2024-01-06T14:35:44;4.70;99.90
41664;DHT22;27353;50.906;7.248;2024-01-06T14:38:11;4.70;99.90
41664;DHT22;27353;50.906;7.248;2024-01-06T14:40:37;4.60;99.90
41664;DHT22;27353;50.906;7.248;2024-01-06T14:43:02;4.60;99.90
41664;DHT22;27353;50.906;7.248;2024-01-06T14:45:29;4.60;99.90
41664;DHT22;27353;50.906;7.248;2024-01-06T14:47:55;4.60;99.90
41664;DHT22;27353;50.906;7.248;2024-01-06T14:50:21;4.60;99.90
41664;DHT22;27353;50.906;7.248;2024-01-06T14:52:46;4.60;99.90
41664;DHT22;27353;50.906;7.248;2024-01-06T14:55:12;4.60;99.90
41664;DHT22;27353;50.906;7.248;2024-01-06T14:57:38;4.50;99.90
41664;DHT22;27353;50.906;7.248;2024-01-06T15:00:05;4.50;99.90
41664;DHT22;27353;50.906;7.248;2024-01-06T15:02:30;4.50;99.90
41664;DHT22;27353;50.906;7.248;2024-01-06T15:04:56;4.50;99.90
41664;DHT22;27353;50.906;7.248;2024-01-06T15:07:23;4.50;99.90
41664;DHT22;27353;50.906;7.248;2024-01-06T15:09:48;4.50;99.90
41664;DHT22;27353;50.906;7.248;2024-01-06T15:12:14;4.50;99.90
41664;DHT22;27353;50.906;7.248;2024-01-06T15:14:39;4.40;99.90
41664;DHT22;27353;50.906;7.248;2024-01-06T15:17:05;4.40;99.90
41664;DHT22;27353;50.906;7.248;2024-01-06T15:19:31;4.30;99.90
41664;DHT22;27353;50.906;7.248;2024-01-06T15:21:58;4.40;99.90
41664;DHT22;27353;50.906;7.248;2024-01-06T15:24:24;4.40;99.90
41664;DHT22;27353;50.906;7.248;2024-01-06T15:26:52;4.40;99.90
41664;DHT22;27353;50.906;7.248;2024-01-06T15:29:18;4.40;99.90
41664;DHT22;27353;50.906;7.248;2024-01-06T15:31:43;4.40;99.90
41664;DHT22;27353;50.906;7.248;2024-01-06T15:34:09;4.40;99.90
41664;DHT22;27353;50.906;7.248;2024-01-06T15:36:35;4.40;99.90
41664;DHT22;27353;50.906;7.248;2024-01-06T15:39:00;4.30;99.90
41664;DHT22;27353;50.906;7.248;2024-01-06T15:41:26;4.40;99.90